Manhattan Beach, Minnesota
Current Conditions -  °F | °C
As of 2:53 PM on Tuesday 27 Jan 2015 (Local Time) from KPWC Reporting Station
Overcast Overcast  
Wind Chill: 24°   Ceiling: 1600
Heat Index: 32°   Visibility: 10mi
Dew Point: 27°   Wind: 9mph
Humidity: 80%   Direction: 170°S
Pressure: 30.09"   Gusts: NA
Location:  46.7336°N, 94.1401°W
Report Text: KPWC 272053Z AUTO 17008KT 10SM OVC016 00/M03 A3009 RMK AO2
Loading
Personal Weather Stations






























Interactive Weather Map New forecast layout! Learn more

10-Day Weather Forecast

Advertisements
Track Severe Weather on mobile